Airfield :







YOU CAN JOIN US ON...

 
LOGIN :

Register | Disclaimer

   EN    FR    IT 

 









Legend :    VFR   Marginal VFR   IFR   Intensive IFR   Very Intensive IFR
Visi :
Ceiling :
>= 8 km
>= 3000ft
5 to 8 km
1000 to 3000 ft
1500m to 5 km
500 to 1000 ft
800 to 1500m
200 to 500 ft
< 800m
< 200 ft
Symbols :   Thunderstorms  Fog  Heavy snow  Heavy precipitations  Wind > 20 kt






- Airport Elevation : 732 ft


KMVL - Morrisville Stowe State

CURRENT METAR :
  • 090754Z AUTO 17006KT 10SM SCT043 BKN050 BKN060 23/22 A2974 RMK AO2 SLP065 T02330217

EXPIRED METARs :
  • 090654Z AUTO 18003KT 10SM BKN045 OVC080 23/22 A2975 RMK AO2 RAB08E27 SLP069 P0000 T02280217
  • 090554Z AUTO 17003KT 10SM OVC030 23/22 A2976 RMK AO2 RAB06E23 SLP074 P0000 60003 T02280217 10244 20228 58011

TAF N/A
KZBW FIR / North America



MET'MAP, your aeronautical weather chart ! - Copyright ORBIFLY December 2007 - Disclaimer

ORBIFLY MET'MAP TEAM :

Programming & Development : Alexandra Zaïnal
Original concept : Baudouin d'Aumeries
Technical & hardware support : Manuel Goepfert
Assistance : Marc-Olivier Méhu




SOURCES & CREDITS :

   NOAA